Time;durP1;ratioP1;P1;durP2;ratioP2;P2;SDS_P1;SDS_P2;PMS_P1;PMS_P2;Temp;Humidity;BMP_temperature;BMP_pressure;BME280_temperature;BME280_humidity;BME280_pressure;Samples;Min_cycle;Max_cycle;Signal;HPM_P1;HPM_P2
2023/06/26 00:01:48;;;;;;;;;;;26.00;35.10;;;;;;1522840;77;703;-72
2023/06/26 00:03:50;;;;;;;;;;;26.00;35.20;;;;;;1504780;77;694;-71
2023/06/26 00:05:52;;;;;;;;;;;26.00;35.10;;;;;;1496375;77;1961;-72
2023/06/26 00:07:54;;;;;;;;;;;26.10;35.10;;;;;;1500535;77;1134;-73
2023/06/26 00:09:56;;;;;;;;;;;26.10;35.10;;;;;;1523886;77;732;-72
2023/06/26 00:11:59;;;;;;;;;;;26.00;35.20;;;;;;1509930;77;1563;-74
2023/06/26 00:14:01;;;;;;;;;;;26.10;35.10;;;;;;1505429;77;668;-71
2023/06/26 00:16:03;;;;;;;;;;;26.00;35.10;;;;;;1519308;77;772;-74
2023/06/26 00:18:05;;;;;;;;;;;26.10;35.00;;;;;;1520727;76;1173;-72
2023/06/26 00:20:08;;;;;;;;;;;26.10;35.10;;;;;;1507555;77;786;-74
2023/06/26 00:22:10;;;;;;;;;;;26.00;35.10;;;;;;1518169;77;720;-73
2023/06/26 00:24:11;;;;;;;;;;;26.10;35.00;;;;;;1507577;77;830;-72
2023/06/26 00:26:13;;;;;;;;;;;26.10;34.90;;;;;;1513169;77;1955;-75
2023/06/26 00:28:15;;;;;;;;;;;26.10;35.00;;;;;;1503063;77;1136;-73
2023/06/26 00:30:17;;;;;;;;;;;26.10;35.00;;;;;;1510800;77;653;-72
2023/06/26 00:32:19;;;;;;;;;;;26.10;35.10;;;;;;1514588;77;692;-72
2023/06/26 00:34:21;;;;;;;;;;;26.10;35.00;;;;;;1514454;77;724;-70
2023/06/26 00:36:26;;;;;;;;;;;26.10;35.20;;;;;;1510295;77;816;-72
2023/06/26 00:38:28;;;;;;;;;;;26.00;35.00;;;;;;1509778;77;1185;-71
2023/06/26 00:40:30;;;;;;;;;;;26.10;35.00;;;;;;1513600;77;1590;-72
2023/06/26 00:42:31;;;;;;;;;;;26.00;35.00;;;;;;1507669;77;741;-72
2023/06/26 00:44:33;;;;;;;;;;;26.00;35.00;;;;;;1511217;76;721;-73
2023/06/26 00:46:35;;;;;;;;;;;26.00;35.00;;;;;;1519504;77;1927;-73
2023/06/26 00:48:37;;;;;;;;;;;26.00;35.10;;;;;;1519160;77;1091;-74
2023/06/26 00:50:39;;;;;;;;;;;26.00;35.30;;;;;;1515525;77;689;-74
2023/06/26 00:52:41;;;;;;;;;;;26.00;35.10;;;;;;1525743;77;696;-72
2023/06/26 00:54:43;;;;;;;;;;;26.10;35.10;;;;;;1509482;77;1546;-71
2023/06/26 00:56:45;;;;;;;;;;;26.00;35.20;;;;;;1516560;77;737;-73
2023/06/26 00:58:47;;;;;;;;;;;26.00;35.30;;;;;;1525898;76;1219;-72
2023/06/26 01:00:49;;;;;;;;;;;26.00;35.20;;;;;;1524166;77;729;-73
2023/06/26 01:02:51;;;;;;;;;;;26.00;35.30;;;;;;1522017;77;674;-73
2023/06/26 01:04:53;;;;;;;;;;;26.00;35.30;;;;;;1514811;77;766;-71
2023/06/26 01:06:54;;;;;;;;;;;26.00;35.30;;;;;;1510052;77;1946;-74
2023/06/26 01:08:56;;;;;;;;;;;26.00;35.30;;;;;;1512300;76;1629;-70
2023/06/26 01:10:59;;;;;;;;;;;26.00;35.50;;;;;;1518027;77;759;-71
2023/06/26 01:13:01;;;;;;;;;;;26.00;35.40;;;;;;1515731;77;691;-74
2023/06/26 01:15:03;;;;;;;;;;;26.00;35.30;;;;;;1517147;77;727;-74
2023/06/26 01:17:05;;;;;;;;;;;26.00;35.20;;;;;;1518880;77;738;-72
2023/06/26 01:19:08;;;;;;;;;;;26.00;35.10;;;;;;1508074;77;1154;-74
2023/06/26 01:21:10;;;;;;;;;;;26.00;35.10;;;;;;1515289;77;1697;-74
2023/06/26 01:23:16;;;;;;;;;;;26.00;35.20;;;;;;1514333;77;1546;-72
2023/06/26 01:25:22;;;;;;;;;;;26.00;35.20;;;;;;1516397;77;703;-73
2023/06/26 01:27:24;;;;;;;;;;;26.00;35.20;;;;;;1508016;77;1939;-71
2023/06/26 01:29:26;;;;;;;;;;;26.00;35.20;;;;;;1518904;77;1149;-72
2023/06/26 01:31:28;;;;;;;;;;;26.00;35.20;;;;;;1526779;77;941;-72
2023/06/26 01:33:29;;;;;;;;;;;26.00;35.20;;;;;;1518671;77;700;-72
2023/06/26 01:35:31;;;;;;;;;;;26.00;35.40;;;;;;1518191;77;823;-75
2023/06/26 01:37:33;;;;;;;;;;;26.00;35.30;;;;;;1510104;77;1579;-73
2023/06/26 01:39:35;;;;;;;;;;;26.00;35.30;;;;;;1527237;77;1131;-73
2023/06/26 01:41:37;;;;;;;;;;;26.00;35.30;;;;;;1516396;77;735;-73
2023/06/26 01:43:56;;;;;;;;;;;26.00;35.40;;;;;;1529944;77;669;-75
2023/06/26 01:46:00;;;;;;;;;;;26.00;35.40;;;;;;1524547;77;1944;-72
2023/06/26 01:48:01;;;;;;;;;;;26.00;35.30;;;;;;1511191;77;1135;-75
2023/06/26 01:50:05;;;;;;;;;;;25.90;34.80;;;;;;1514537;77;673;-72
2023/06/26 01:52:08;;;;;;;;;;;26.00;35.30;;;;;;1521275;77;1052;-72
2023/06/26 01:54:11;;;;;;;;;;;26.00;35.30;;;;;;1535034;77;758;-72
2023/06/26 01:56:16;;;;;;;;;;;26.00;35.40;;;;;;1509770;77;750;-74
2023/06/26 01:58:18;;;;;;;;;;;25.90;34.90;;;;;;1521538;76;1235;-71
2023/06/26 02:00:21;;;;;;;;;;;26.00;35.50;;;;;;1531771;77;684;-74
2023/06/26 02:02:26;;;;;;;;;;;26.00;35.50;;;;;;1515887;77;752;-74
2023/06/26 02:04:28;;;;;;;;;;;25.90;35.00;;;;;;1506640;77;1486;-72
2023/06/26 02:06:30;;;;;;;;;;;25.90;35.20;;;;;;1515331;77;1937;-71
2023/06/26 02:08:31;;;;;;;;;;;26.00;35.70;;;;;;1525273;76;1142;-74
2023/06/26 02:10:34;;;;;;;;;;;26.00;35.70;;;;;;1527729;77;699;-72
2023/06/26 02:12:36;;;;;;;;;;;25.90;35.30;;;;;;1515294;77;689;-74
2023/06/26 02:14:38;;;;;;;;;;;25.90;35.30;;;;;;1519468;77;781;-73
2023/06/26 02:16:40;;;;;;;;;;;25.90;35.40;;;;;;1518138;77;766;-72
2023/06/26 02:18:42;;;;;;;;;;;25.90;35.40;;;;;;1504480;77;1644;-73
2023/06/26 02:20:43;;;;;;;;;;;25.90;35.40;;;;;;1510408;77;631;-72
2023/06/26 02:22:45;;;;;;;;;;;25.90;35.40;;;;;;1524680;77;725;-72
2023/06/26 02:24:47;;;;;;;;;;;25.90;35.40;;;;;;1524205;77;765;-71
2023/06/26 02:26:49;;;;;;;;;;;25.90;35.40;;;;;;1522509;77;1939;-72
2023/06/26 02:28:51;;;;;;;;;;;25.90;35.40;;;;;;1501698;77;1211;-73
2023/06/26 02:30:53;;;;;;;;;;;25.90;35.30;;;;;;1509632;77;697;-73
2023/06/26 02:32:55;;;;;;;;;;;25.90;35.40;;;;;;1522409;77;1554;-71
2023/06/26 02:34:56;;;;;;;;;;;25.90;35.30;;;;;;1511552;77;756;-70
2023/06/26 02:37:00;;;;;;;;;;;25.90;35.30;;;;;;1513668;77;826;-72
2023/06/26 02:39:02;;;;;;;;;;;25.90;35.30;;;;;;1524090;76;1135;-72
2023/06/26 02:41:04;;;;;;;;;;;25.80;35.30;;;;;;1526557;77;736;-72
2023/06/26 02:43:06;;;;;;;;;;;25.80;35.40;;;;;;1517030;77;752;-74
2023/06/26 02:45:09;;;;;;;;;;;25.90;35.40;;;;;;1514741;77;742;-72
2023/06/26 02:47:11;;;;;;;;;;;25.90;35.20;;;;;;1505184;77;1928;-75
2023/06/26 02:49:13;;;;;;;;;;;25.90;35.30;;;;;;1508815;77;1235;-72
2023/06/26 02:51:15;;;;;;;;;;;25.90;35.20;;;;;;1503995;77;657;-73
2023/06/26 02:53:17;;;;;;;;;;;25.90;35.20;;;;;;1517295;77;773;-74
2023/06/26 02:55:20;;;;;;;;;;;25.90;35.10;;;;;;1517106;77;722;-73
2023/06/26 02:57:22;;;;;;;;;;;25.90;35.10;;;;;;1517981;77;682;-72
2023/06/26 02:59:23;;;;;;;;;;;25.90;35.10;;;;;;1520594;77;1255;-71
2023/06/26 03:01:26;;;;;;;;;;;25.90;35.10;;;;;;1525165;77;1583;-75
2023/06/26 03:03:28;;;;;;;;;;;25.90;35.10;;;;;;1518188;77;680;-71
2023/06/26 03:05:29;;;;;;;;;;;25.90;35.10;;;;;;1514713;77;688;-74
2023/06/26 03:07:31;;;;;;;;;;;26.00;35.70;;;;;;1529573;77;1928;-74
2023/06/26 03:09:33;;;;;;;;;;;25.90;35.00;;;;;;1530252;77;1099;-72
2023/06/26 03:11:35;;;;;;;;;;;25.90;35.00;;;;;;1520647;77;740;-71
2023/06/26 03:13:37;;;;;;;;;;;25.90;35.00;;;;;;1504892;77;799;-72
2023/06/26 03:15:39;;;;;;;;;;;25.90;35.00;;;;;;1518149;77;1576;-72
2023/06/26 03:17:41;;;;;;;;;;;25.90;35.00;;;;;;1520194;77;703;-73
2023/06/26 03:19:42;;;;;;;;;;;25.90;34.90;;;;;;1521931;77;1115;-75
2023/06/26 03:21:44;;;;;;;;;;;25.90;34.90;;;;;;1526034;77;688;-72
2023/06/26 03:23:46;;;;;;;;;;;25.90;35.00;;;;;;1523980;77;922;-72
2023/06/26 03:25:48;;;;;;;;;;;25.90;35.00;;;;;;1524227;77;738;-73
2023/06/26 03:27:50;;;;;;;;;;;25.90;35.00;;;;;;1502054;77;1930;-72
2023/06/26 03:29:52;;;;;;;;;;;25.90;34.90;;;;;;1519845;77;1550;-71
2023/06/26 03:31:54;;;;;;;;;;;25.90;34.90;;;;;;1516708;77;746;-72
2023/06/26 03:33:56;;;;;;;;;;;25.90;34.90;;;;;;1514642;77;725;-69
2023/06/26 03:35:59;;;;;;;;;;;25.90;34.90;;;;;;1515078;77;698;-72
2023/06/26 03:38:01;;;;;;;;;;;25.90;35.00;;;;;;1518316;77;1195;-71
2023/06/26 03:40:04;;;;;;;;;;;25.90;35.00;;;;;;1510031;77;738;-72
2023/06/26 03:42:06;;;;;;;;;;;25.90;35.00;;;;;;1522213;77;632;-72
2023/06/26 03:44:08;;;;;;;;;;;25.90;35.00;;;;;;1510391;77;1682;-75
2023/06/26 03:46:10;;;;;;;;;;;25.90;35.00;;;;;;1521456;77;675;-71
2023/06/26 03:48:12;;;;;;;;;;;25.80;35.00;;;;;;1499441;77;1954;-72
2023/06/26 03:50:14;;;;;;;;;;;25.80;34.90;;;;;;1521895;77;708;-72
2023/06/26 03:52:15;;;;;;;;;;;25.80;35.00;;;;;;1506010;77;699;-71
2023/06/26 03:54:17;;;;;;;;;;;25.90;35.00;;;;;;1524625;77;722;-72
2023/06/26 03:56:19;;;;;;;;;;;25.80;35.10;;;;;;1512779;77;695;-71
2023/06/26 03:58:21;;;;;;;;;;;25.80;35.10;;;;;;1508700;77;1600;-71
2023/06/26 04:00:23;;;;;;;;;;;25.70;35.10;;;;;;1518356;77;739;-72
2023/06/26 04:02:25;;;;;;;;;;;25.80;35.20;;;;;;1510939;77;1017;-72
2023/06/26 04:04:27;;;;;;;;;;;25.80;35.20;;;;;;1477555;78;720;-71
2023/06/26 04:06:31;;;;;;;;;;;25.70;35.20;;;;;;1462514;79;689;-71
2023/06/26 04:08:32;;;;;;;;;;;25.80;35.20;;;;;;1502411;76;1497;-73
2023/06/26 04:10:36;;;;;;;;;;;25.80;35.30;;;;;;1501680;77;633;-72
2023/06/26 04:12:38;;;;;;;;;;;25.80;35.20;;;;;;1500389;77;1639;-72
2023/06/26 04:14:39;;;;;;;;;;;25.70;35.20;;;;;;1504326;77;746;-74
2023/06/26 04:16:41;;;;;;;;;;;25.70;35.30;;;;;;1497388;77;700;-71
2023/06/26 04:18:43;;;;;;;;;;;25.70;35.40;;;;;;1510248;77;1113;-72
2023/06/26 04:20:47;;;;;;;;;;;25.70;35.40;;;;;;1504940;77;758;-73
2023/06/26 04:22:48;;;;;;;;;;;25.70;35.60;;;;;;1519447;77;1891;-73
2023/06/26 04:24:50;;;;;;;;;;;25.70;35.60;;;;;;1519865;77;1580;-71
2023/06/26 04:26:52;;;;;;;;;;;25.60;35.60;;;;;;1504666;77;1927;-73
2023/06/26 04:28:54;;;;;;;;;;;25.60;35.60;;;;;;1507988;76;1126;-75
2023/06/26 04:30:56;;;;;;;;;;;25.60;35.70;;;;;;1507370;77;755;-72
2023/06/26 04:32:58;;;;;;;;;;;25.60;35.80;;;;;;1504171;77;616;-75
2023/06/26 04:35:00;;;;;;;;;;;25.70;35.80;;;;;;1502176;77;738;-76
2023/06/26 04:37:03;;;;;;;;;;;25.60;35.80;;;;;;1509740;77;735;-71
2023/06/26 04:39:06;;;;;;;;;;;25.60;35.80;;;;;;1509035;77;1545;-74
2023/06/26 04:41:08;;;;;;;;;;;25.60;35.70;;;;;;1514260;77;733;-73
2023/06/26 04:43:09;;;;;;;;;;;25.70;35.70;;;;;;1508701;77;648;-74
2023/06/26 04:45:11;;;;;;;;;;;25.70;35.60;;;;;;1506477;77;771;-74
2023/06/26 04:47:17;;;;;;;;;;;25.70;35.50;;;;;;1519805;77;1925;-73
2023/06/26 04:49:17;;;;;;;;;;;25.70;35.50;;;;;;1509631;76;1237;-74
2023/06/26 04:51:20;;;;;;;;;;;25.70;35.50;;;;;;1505309;77;825;-72
2023/06/26 04:53:27;;;;;;;;;;;25.70;35.70;;;;;;1502700;77;1321;-73
2023/06/26 04:55:26;;;;;;;;;;;25.70;35.70;;;;;;1504057;77;1597;-72
2023/06/26 04:57:28;;;;;;;;;;;25.70;35.70;;;;;;1507822;77;729;-71
2023/06/26 04:59:30;;;;;;;;;;;25.80;35.60;;;;;;1511908;77;1121;-71
2023/06/26 05:01:32;;;;;;;;;;;25.70;35.70;;;;;;1512094;77;682;-74
2023/06/26 05:03:34;;;;;;;;;;;25.70;35.50;;;;;;1499888;77;796;-76
2023/06/26 05:05:36;;;;;;;;;;;25.80;35.70;;;;;;1490359;77;682;-73
2023/06/26 05:07:38;;;;;;;;;;;25.80;35.50;;;;;;1503588;77;1941;-72
2023/06/26 05:09:40;;;;;;;;;;;25.70;35.70;;;;;;1511664;77;1112;-73
2023/06/26 05:11:42;;;;;;;;;;;25.70;36.20;;;;;;1502377;77;658;-74
2023/06/26 05:13:44;;;;;;;;;;;25.80;36.30;;;;;;1512299;77;647;-71
2023/06/26 05:15:49;;;;;;;;;;;25.70;35.90;;;;;;1506697;77;721;-75
2023/06/26 05:17:51;;;;;;;;;;;25.80;35.80;;;;;;1500418;77;715;-72
2023/06/26 05:19:52;;;;;;;;;;;25.80;35.70;;;;;;1498999;77;1175;-74
2023/06/26 05:21:54;;;;;;;;;;;25.70;35.70;;;;;;1519976;77;1537;-74
2023/06/26 05:23:57;;;;;;;;;;;25.80;35.60;;;;;;1509758;77;785;-72
2023/06/26 05:25:59;;;;;;;;;;;25.80;35.60;;;;;;1498019;77;677;-73
2023/06/26 05:28:01;;;;;;;;;;;25.80;35.60;;;;;;1519040;76;1943;-73
2023/06/26 05:30:03;;;;;;;;;;;25.80;35.70;;;;;;1511192;77;674;-74
2023/06/26 05:32:05;;;;;;;;;;;25.80;35.60;;;;;;1514031;77;703;-74
2023/06/26 05:34:07;;;;;;;;;;;25.80;35.70;;;;;;1510749;77;701;-75
2023/06/26 05:36:09;;;;;;;;;;;25.90;35.70;;;;;;1482713;78;1392;-73
2023/06/26 05:38:13;;;;;;;;;;;25.80;35.60;;;;;;1466105;80;1133;-73
2023/06/26 05:40:15;;;;;;;;;;;25.90;35.70;;;;;;1458309;80;683;-73
2023/06/26 05:42:17;;;;;;;;;;;25.90;35.70;;;;;;1482795;79;711;-72
2023/06/26 05:44:19;;;;;;;;;;;25.90;35.70;;;;;;1499514;77;712;-72
2023/06/26 05:46:21;;;;;;;;;;;25.80;35.70;;;;;;1507849;77;710;-72
2023/06/26 05:48:23;;;;;;;;;;;25.90;35.80;;;;;;1507033;77;1937;-73
2023/06/26 05:50:25;;;;;;;;;;;25.80;35.70;;;;;;1513700;77;1741;-73
2023/06/26 05:52:27;;;;;;;;;;;25.80;35.80;;;;;;1506724;77;709;-72
2023/06/26 05:54:29;;;;;;;;;;;25.90;35.80;;;;;;1497911;77;729;-72
2023/06/26 05:56:31;;;;;;;;;;;25.90;35.70;;;;;;1500984;77;688;-74
2023/06/26 05:58:33;;;;;;;;;;;25.90;35.70;;;;;;1513797;77;1091;-74
2023/06/26 06:00:35;;;;;;;;;;;25.90;36.00;;;;;;1512965;77;749;-72
2023/06/26 06:02:37;;;;;;;;;;;25.90;36.20;;;;;;1505847;77;781;-72
2023/06/26 06:04:39;;;;;;;;;;;25.90;36.20;;;;;;1503860;77;1593;-75
2023/06/26 06:06:41;;;;;;;;;;;25.90;36.50;;;;;;1511645;77;856;-72
2023/06/26 06:08:43;;;;;;;;;;;25.90;36.50;;;;;;1511371;77;1937;-73
2023/06/26 06:10:45;;;;;;;;;;;25.90;36.80;;;;;;1515873;77;752;-73
2023/06/26 06:12:47;;;;;;;;;;;25.90;37.30;;;;;;1503841;77;730;-73
2023/06/26 06:14:48;;;;;;;;;;;25.80;37.10;;;;;;1510661;77;620;-74
2023/06/26 06:16:50;;;;;;;;;;;25.80;37.30;;;;;;1507712;77;661;-74
2023/06/26 06:18:52;;;;;;;;;;;25.80;37.50;;;;;;1507614;77;1599;-72
2023/06/26 06:20:54;;;;;;;;;;;25.80;37.80;;;;;;1510478;77;685;-72
2023/06/26 06:22:56;;;;;;;;;;;25.70;38.00;;;;;;1519815;77;850;-72
2023/06/26 06:24:58;;;;;;;;;;;25.70;38.20;;;;;;1487558;77;787;-72
2023/06/26 06:27:02;;;;;;;;;;;25.70;38.40;;;;;;1500230;77;853;-72
2023/06/26 06:29:07;;;;;;;;;;;25.70;38.60;;;;;;1515765;77;1935;-72
2023/06/26 06:31:09;;;;;;;;;;;25.70;38.70;;;;;;1521427;77;744;-72
2023/06/26 06:33:11;;;;;;;;;;;25.70;38.40;;;;;;1506935;77;1665;-71
2023/06/26 06:35:13;;;;;;;;;;;25.70;38.50;;;;;;1508411;77;671;-71
2023/06/26 06:37:15;;;;;;;;;;;25.70;38.60;;;;;;1505382;76;688;-72
2023/06/26 06:39:17;;;;;;;;;;;25.70;38.50;;;;;;1514110;77;1116;-72
2023/06/26 06:41:19;;;;;;;;;;;25.70;38.10;;;;;;1509759;77;724;-70
2023/06/26 06:43:21;;;;;;;;;;;25.80;37.70;;;;;;1499343;77;740;-73
2023/06/26 06:45:23;;;;;;;;;;;25.80;38.00;;;;;;1506748;77;724;-72
2023/06/26 06:47:25;;;;;;;;;;;25.80;37.70;;;;;;1497715;77;1687;-73
2023/06/26 06:49:27;;;;;;;;;;;25.80;38.60;;;;;;1496012;76;1947;-73
2023/06/26 06:51:29;;;;;;;;;;;25.90;38.60;;;;;;1506705;77;774;-72
2023/06/26 06:53:31;;;;;;;;;;;25.80;38.10;;;;;;1514540;77;916;-72
2023/06/26 06:55:33;;;;;;;;;;;25.90;37.60;;;;;;1504515;77;728;-74
2023/06/26 06:57:37;;;;;;;;;;;25.90;37.40;;;;;;1493435;77;678;-72
2023/06/26 06:59:39;;;;;;;;;;;26.00;37.90;;;;;;1503928;77;1611;-71
2023/06/26 07:01:41;;;;;;;;;;;26.00;38.00;;;;;;1513384;77;739;-71
2023/06/26 07:03:42;;;;;;;;;;;26.00;37.90;;;;;;1511331;77;666;-72
2023/06/26 07:05:44;;;;;;;;;;;26.00;37.80;;;;;;1515951;77;620;-72
2023/06/26 07:07:46;;;;;;;;;;;26.00;37.80;;;;;;1504808;77;1926;-73
2023/06/26 07:09:48;;;;;;;;;;;26.00;37.80;;;;;;1503896;77;1144;-73
2023/06/26 07:11:50;;;;;;;;;;;26.00;37.80;;;;;;1513418;77;1071;-72
2023/06/26 07:13:52;;;;;;;;;;;26.00;37.70;;;;;;1499548;77;1446;-71
2023/06/26 07:15:54;;;;;;;;;;;26.00;37.60;;;;;;1502575;77;1101;-72
2023/06/26 07:17:55;;;;;;;;;;;26.00;37.70;;;;;;1498577;77;1400;-72
2023/06/26 07:19:57;;;;;;;;;;;25.90;37.20;;;;;;1503453;77;1349;-70
2023/06/26 07:21:59;;;;;;;;;;;26.00;37.80;;;;;;1502314;77;1151;-72
2023/06/26 07:24:01;;;;;;;;;;;26.00;37.80;;;;;;1492693;77;1493;-71
2023/06/26 07:26:03;;;;;;;;;;;26.00;37.80;;;;;;1503550;77;1194;-71
2023/06/26 07:28:07;;;;;;;;;;;26.00;37.70;;;;;;1505104;77;1935;-70
2023/06/26 07:30:09;;;;;;;;;;;26.00;37.80;;;;;;1505011;77;1207;-70
2023/06/26 07:32:11;;;;;;;;;;;26.00;37.70;;;;;;1508062;77;1483;-70
2023/06/26 07:34:13;;;;;;;;;;;26.00;37.70;;;;;;1507964;77;1108;-72
2023/06/26 07:36:15;;;;;;;;;;;26.10;38.00;;;;;;1511168;77;1221;-72
2023/06/26 07:38:17;;;;;;;;;;;26.10;38.00;;;;;;1505669;77;1515;-71
2023/06/26 07:40:19;;;;;;;;;;;26.20;37.80;;;;;;1503522;77;1049;-72
2023/06/26 07:42:21;;;;;;;;;;;26.20;37.90;;;;;;1506184;77;1497;-73
2023/06/26 07:44:23;;;;;;;;;;;26.20;38.00;;;;;;1494289;77;1030;-71
2023/06/26 07:46:24;;;;;;;;;;;26.30;37.70;;;;;;1506210;77;1372;-72
2023/06/26 07:48:26;;;;;;;;;;;26.30;37.70;;;;;;1502655;77;1937;-73
2023/06/26 07:50:28;;;;;;;;;;;26.30;37.60;;;;;;1510904;77;1140;-72
2023/06/26 07:52:30;;;;;;;;;;;26.40;37.60;;;;;;1505238;77;1483;-72
2023/06/26 07:54:32;;;;;;;;;;;26.30;37.40;;;;;;1506594;77;1189;-73
2023/06/26 07:56:35;;;;;;;;;;;26.50;37.30;;;;;;1507357;77;1577;-74
2023/06/26 07:58:37;;;;;;;;;;;26.40;37.00;;;;;;1501566;77;1811;-71
2023/06/26 08:00:39;;;;;;;;;;;26.30;37.20;;;;;;1499986;77;1157;-74
2023/06/26 08:02:41;;;;;;;;;;;26.40;37.40;;;;;;1500943;77;1462;-72
2023/06/26 08:04:44;;;;;;;;;;;26.30;37.40;;;;;;1508667;77;1558;-74
2023/06/26 08:06:46;;;;;;;;;;;26.50;37.30;;;;;;1511096;77;1099;-72
2023/06/26 08:08:47;;;;;;;;;;;26.50;37.30;;;;;;1505653;77;1940;-73
2023/06/26 08:10:49;;;;;;;;;;;26.60;37.00;;;;;;1500290;77;1510;-73
2023/06/26 08:12:52;;;;;;;;;;;26.50;36.50;;;;;;1505655;77;1097;-72
2023/06/26 08:14:54;;;;;;;;;;;26.70;36.00;;;;;;1502057;77;1577;-72
2023/06/26 08:16:56;;;;;;;;;;;26.70;35.70;;;;;;1502999;77;1072;-72
2023/06/26 08:18:58;;;;;;;;;;;26.70;35.70;;;;;;1503881;77;1186;-71
2023/06/26 08:21:00;;;;;;;;;;;26.70;35.70;;;;;;1496265;77;1503;-73
2023/06/26 08:23:02;;;;;;;;;;;26.70;35.60;;;;;;1510568;77;1120;-74
2023/06/26 08:25:05;;;;;;;;;;;26.70;35.20;;;;;;1509343;77;1502;-72
2023/06/26 08:27:07;;;;;;;;;;;26.70;35.30;;;;;;1502786;77;1560;-72
2023/06/26 08:29:09;;;;;;;;;;;26.80;35.10;;;;;;1507195;77;1938;-71
2023/06/26 08:31:11;;;;;;;;;;;26.80;34.90;;;;;;1501062;77;1193;-70
2023/06/26 08:33:13;;;;;;;;;;;26.80;35.00;;;;;;1497966;77;1151;-71
2023/06/26 08:35:16;;;;;;;;;;;26.80;34.80;;;;;;1498504;77;1503;-74
2023/06/26 08:37:18;;;;;;;;;;;26.90;34.60;;;;;;1498245;77;1492;-71
2023/06/26 08:39:20;;;;;;;;;;;26.80;34.50;;;;;;1503110;77;1577;-70
2023/06/26 08:41:21;;;;;;;;;;;26.80;34.40;;;;;;1497323;77;1058;-70
2023/06/26 08:43:23;;;;;;;;;;;26.80;34.50;;;;;;1499574;77;1453;-73
2023/06/26 08:45:28;;;;;;;;;;;26.80;34.50;;;;;;1510899;77;1225;-74
2023/06/26 08:47:29;;;;;;;;;;;26.80;34.40;;;;;;1494648;77;1480;-71
2023/06/26 08:49:32;;;;;;;;;;;26.70;34.20;;;;;;1506751;77;1953;-69
2023/06/26 08:51:34;;;;;;;;;;;26.80;34.40;;;;;;1505185;77;1505;-73
2023/06/26 08:53:54;;;;;;;;;;;26.70;34.30;;;;;;1501446;77;1538;-74
2023/06/26 08:55:58;;;;;;;;;;;26.80;33.60;;;;;;1506596;77;1127;-71
2023/06/26 08:58:01;;;;;;;;;;;26.90;33.40;;;;;;1504354;77;1512;-73
2023/06/26 09:00:03;;;;;;;;;;;26.80;33.30;;;;;;1508236;77;1124;-72
2023/06/26 09:02:05;;;;;;;;;;;26.80;33.40;;;;;;1505010;77;1490;-74
2023/06/26 09:04:07;;;;;;;;;;;26.80;33.50;;;;;;1503770;77;1121;-73
2023/06/26 09:06:09;;;;;;;;;;;26.90;33.60;;;;;;1507030;77;1477;-74
2023/06/26 09:08:13;;;;;;;;;;;26.90;33.30;;;;;;1510561;77;1172;-75
2023/06/26 09:10:14;;;;;;;;;;;26.70;33.10;;;;;;1503822;77;1926;-72
2023/06/26 09:12:16;;;;;;;;;;;26.70;33.20;;;;;;1513279;77;1048;-72
2023/06/26 09:14:18;;;;;;;;;;;26.70;33.20;;;;;;1510030;77;1513;-72
2023/06/26 09:16:22;;;;;;;;;;;26.70;32.80;;;;;;1512044;77;1078;-72
2023/06/26 09:18:23;;;;;;;;;;;26.70;32.70;;;;;;1505217;77;1228;-72
2023/06/26 09:20:27;;;;;;;;;;;26.60;33.10;;;;;;1508810;77;1376;-69
2023/06/26 09:22:29;;;;;;;;;;;26.60;33.10;;;;;;1508031;77;1070;-72
2023/06/26 09:24:31;;;;;;;;;;;26.70;33.10;;;;;;1508400;77;1188;-72
2023/06/26 09:26:33;;;;;;;;;;;26.70;33.20;;;;;;1503407;77;1233;-73
2023/06/26 09:28:35;;;;;;;;;;;26.70;33.20;;;;;;1503116;77;1952;-72
2023/06/26 09:30:37;;;;;;;;;;;26.70;32.70;;;;;;1501101;77;1488;-73
2023/06/26 09:32:39;;;;;;;;;;;26.70;32.70;;;;;;1503365;77;1113;-73
2023/06/26 09:34:42;;;;;;;;;;;26.70;33.00;;;;;;1506664;77;1485;-75
2023/06/26 09:36:46;;;;;;;;;;;26.60;33.00;;;;;;1508531;77;1078;-72
2023/06/26 09:38:47;;;;;;;;;;;26.70;33.30;;;;;;1512242;77;1466;-70
2023/06/26 09:40:49;;;;;;;;;;;26.70;33.40;;;;;;1513658;77;1046;-72
2023/06/26 09:42:51;;;;;;;;;;;26.70;33.40;;;;;;1508592;77;1166;-70
2023/06/26 09:44:54;;;;;;;;;;;26.70;33.40;;;;;;1500098;77;1133;-71
2023/06/26 09:46:56;;;;;;;;;;;26.60;33.20;;;;;;1504901;77;2163;-74
2023/06/26 09:48:59;;;;;;;;;;;26.70;33.00;;;;;;1495805;77;1946;-70
2023/06/26 09:51:01;;;;;;;;;;;26.60;32.50;;;;;;1508369;77;1140;-73
2023/06/26 09:53:18;;;;;;;;;;;26.60;32.80;;;;;;1514723;77;1202;-71
2023/06/26 09:55:15;;;;;;;;;;;26.60;33.00;;;;;;1495755;77;1523;-72
2023/06/26 09:57:17;;;;;;;;;;;26.60;33.40;;;;;;1508191;77;1085;-75
2023/06/26 09:59:19;;;;;;;;;;;26.60;33.60;;;;;;1506628;77;1151;-72
2023/06/26 10:01:21;;;;;;;;;;;26.60;33.50;;;;;;1503789;77;1198;-73
2023/06/26 10:03:23;;;;;;;;;;;26.60;33.30;;;;;;1506604;77;1456;-73
2023/06/26 10:05:24;;;;;;;;;;;26.60;33.40;;;;;;1506632;77;1113;-71
2023/06/26 10:07:27;;;;;;;;;;;26.60;33.50;;;;;;1512468;77;1048;-71
2023/06/26 10:09:28;;;;;;;;;;;26.60;33.70;;;;;;1511382;77;1940;-72
2023/06/26 10:11:32;;;;;;;;;;;26.60;33.90;;;;;;1495643;77;1459;-71
2023/06/26 10:13:36;;;;;;;;;;;26.60;33.60;;;;;;1502039;77;1682;-71
2023/06/26 10:15:37;;;;;;;;;;;26.50;33.60;;;;;;1498818;77;1154;-71
2023/06/26 10:17:39;;;;;;;;;;;26.50;33.70;;;;;;1505664;77;1575;-73
2023/06/26 10:19:42;;;;;;;;;;;26.50;33.90;;;;;;1506009;77;1100;-71
2023/06/26 10:21:44;;;;;;;;;;;26.60;33.90;;;;;;1503601;77;1250;-71
2023/06/26 10:23:46;;;;;;;;;;;26.60;33.70;;;;;;1517641;77;1145;-71
2023/06/26 10:25:48;;;;;;;;;;;26.50;33.60;;;;;;1496876;77;1495;-69
2023/06/26 10:27:55;;;;;;;;;;;26.50;33.90;;;;;;1502364;77;1402;-73
2023/06/26 10:29:57;;;;;;;;;;;26.50;34.00;;;;;;1504557;77;1934;-71
2023/06/26 10:31:59;;;;;;;;;;;26.60;33.90;;;;;;1515450;77;1194;-72
2023/06/26 10:34:01;;;;;;;;;;;26.50;33.60;;;;;;1508100;77;1119;-72
2023/06/26 10:36:15;;;;;;;;;;;26.50;33.80;;;;;;1504650;77;1703;-72
2023/06/26 10:38:18;;;;;;;;;;;26.40;34.00;;;;;;1511947;76;1246;-71
2023/06/26 10:40:23;;;;;;;;;;;26.50;34.20;;;;;;1509183;77;1299;-71
2023/06/26 10:42:38;;;;;;;;;;;26.40;34.40;;;;;;1485703;78;1174;-71
2023/06/26 10:44:47;;;;;;;;;;;26.50;34.50;;;;;;1507561;77;1528;-74
2023/06/26 10:46:52;;;;;;;;;;;26.60;34.50;;;;;;1507939;77;1397;-71
2023/06/26 10:48:57;;;;;;;;;;;26.60;34.60;;;;;;1505569;77;2038;-71
2023/06/26 10:50:59;;;;;;;;;;;26.50;34.70;;;;;;1496256;77;1135;-70
2023/06/26 10:53:11;;;;;;;;;;;26.50;34.90;;;;;;1487212;78;1243;-70
2023/06/26 10:55:14;;;;;;;;;;;26.50;34.90;;;;;;1506287;77;1103;-70
2023/06/26 10:57:18;;;;;;;;;;;26.50;34.90;;;;;;1497995;77;1208;-70
2023/06/26 10:59:20;;;;;;;;;;;26.40;35.10;;;;;;1515097;76;1573;-69
2023/06/26 11:01:22;;;;;;;;;;;26.50;35.40;;;;;;1497761;77;1188;-71
2023/06/26 11:03:24;;;;;;;;;;;26.50;35.50;;;;;;1502917;77;1134;-70
2023/06/26 11:05:29;;;;;;;;;;;26.50;35.40;;;;;;1494468;77;1097;-70
2023/06/26 11:07:31;;;;;;;;;;;26.50;35.30;;;;;;1507761;77;1062;-71
2023/06/26 11:09:33;;;;;;;;;;;26.50;35.40;;;;;;1511148;76;1937;-73
2023/06/26 11:11:37;;;;;;;;;;;26.40;35.20;;;;;;1491943;79;1192;-73
2023/06/26 11:13:39;;;;;;;;;;;26.40;35.40;;;;;;1503193;77;1768;-72
2023/06/26 11:15:44;;;;;;;;;;;26.40;35.10;;;;;;1499786;77;1108;-71
2023/06/26 11:17:46;;;;;;;;;;;26.50;34.40;;;;;;1512103;77;1432;-71
2023/06/26 11:19:48;;;;;;;;;;;26.40;34.40;;;;;;1488876;78;1466;-71
2023/06/26 11:21:49;;;;;;;;;;;26.40;34.40;;;;;;1510063;77;1139;-72
2023/06/26 11:23:51;;;;;;;;;;;26.50;34.60;;;;;;1507233;77;1524;-71
2023/06/26 11:25:53;;;;;;;;;;;26.50;34.70;;;;;;1511264;77;1120;-68
2023/06/26 11:27:56;;;;;;;;;;;26.40;34.90;;;;;;1501754;77;1352;-69
2023/06/26 11:29:58;;;;;;;;;;;26.50;34.70;;;;;;1521603;77;1918;-70
2023/06/26 11:32:02;;;;;;;;;;;26.40;35.00;;;;;;1514886;77;1148;-73
2023/06/26 11:34:04;;;;;;;;;;;26.50;34.50;;;;;;1496719;77;1629;-72
2023/06/26 11:36:09;;;;;;;;;;;26.40;34.30;;;;;;1495773;77;1086;-71
2023/06/26 11:38:12;;;;;;;;;;;26.50;34.60;;;;;;1498277;77;1569;-72
2023/06/26 11:40:19;;;;;;;;;;;26.50;34.50;;;;;;1510272;77;1099;-72
2023/06/26 11:42:21;;;;;;;;;;;26.50;34.60;;;;;;1513667;77;1705;-72
2023/06/26 11:44:23;;;;;;;;;;;26.40;34.50;;;;;;1497431;77;1132;-72
2023/06/26 11:46:25;;;;;;;;;;;26.40;34.40;;;;;;1503604;77;1090;-73
2023/06/26 11:48:26;;;;;;;;;;;26.50;34.50;;;;;;1506163;77;1336;-72
2023/06/26 11:50:28;;;;;;;;;;;26.40;34.50;;;;;;1504789;77;1967;-75
2023/06/26 11:52:30;;;;;;;;;;;26.50;34.60;;;;;;1502095;77;1105;-73
2023/06/26 11:54:32;;;;;;;;;;;26.50;34.60;;;;;;1503219;77;1517;-72
2023/06/26 11:56:34;;;;;;;;;;;26.50;34.70;;;;;;1513738;77;1672;-71
2023/06/26 11:58:36;;;;;;;;;;;26.40;34.70;;;;;;1503413;77;1490;-72
2023/06/26 12:00:39;;;;;;;;;;;26.50;34.70;;;;;;1515118;77;1512;-72
2023/06/26 12:02:42;;;;;;;;;;;26.50;34.80;;;;;;1490550;77;1924;-74
2023/06/26 12:04:44;;;;;;;;;;;26.50;34.80;;;;;;1502760;77;1115;-77
2023/06/26 12:06:48;;;;;;;;;;;26.50;34.70;;;;;;1506362;76;1150;-71
2023/06/26 12:08:49;;;;;;;;;;;26.40;34.90;;;;;;1503796;77;1254;-72